Connecticut River @ Thompsonville, Ct

Connecticut River at Thompsonville
 Total Drainage Area: 9,661 sq. miles 
 Drainage Area Controlled by Corps Dams: 1,431 sq. miles (15%) 
 Warning Flow/Stage: 78,280 cfs / 14.5 feet 
 Flood Flow/Stage: 156,960 cfs / 19.2 feet 
Date Time
(Eastern)
Stage
(ft)
Flow
(cfs)
CSM
(cfs / sq. mi.)
Jan-31 02:30 pm 10.03 22,626 2.3
Jan-31 01:30 pm 10.02 22,519 2.3
Jan-31 12:30 pm 10.04 22,734 2.4
Jan-31 11:30 am 10.02 22,519 2.3
Jan-31 10:30 am 10.00 22,306 2.3
Jan-31 09:30 am 10.01 22,413 2.3
Jan-31 08:30 am 9.97 21,987 2.3
Jan-31 07:30 am 9.97 21,987 2.3
Jan-31 06:30 am 9.96 21,881 2.3
Jan-31 05:30 am 9.94 21,669 2.2
Jan-31 04:30 am 9.93 21,564 2.2
Jan-31 03:30 am 9.92 21,458 2.2
Jan-31 02:30 am 9.91 21,353 2.2
Jan-31 01:30 am 9.89 21,143 2.2
Jan-31 12:30 am 9.89 21,143 2.2
Jan-30 11:30 pm 9.88 21,039 2.2
Jan-30 10:30 pm 9.87 20,934 2.2
Jan-30 09:30 pm 9.87 20,934 2.2
Jan-30 08:30 pm 9.87 20,934 2.2
Jan-30 07:30 pm 9.89 21,143 2.2
Jan-30 06:30 pm 9.94 21,669 2.2
Jan-30 05:30 pm 9.96 21,881 2.3
Jan-30 04:30 pm 10.01 22,413 2.3
Jan-30 03:30 pm 10.05 22,841 2.4
Jan-30 02:30 pm 10.06 22,948 2.4
Report Generated January 31, 2023 08:28 pm